sensor_id;sensor_type;location;lat;lon;timestamp;temperature;humidity
13794;DHT22;31160;49.500;7.772;2022-08-04T00:01:40;21.80;91.00
13794;DHT22;31160;49.500;7.772;2022-08-04T00:04:14;21.70;91.30
13794;DHT22;31160;49.500;7.772;2022-08-04T00:06:59;21.70;91.50
13794;DHT22;31160;49.500;7.772;2022-08-04T00:09:51;21.60;91.50
13794;DHT22;31160;49.500;7.772;2022-08-04T00:12:21;21.60;91.80
13794;DHT22;31160;49.500;7.772;2022-08-04T00:14:58;21.50;92.20
13794;DHT22;31160;49.500;7.772;2022-08-04T00:17:34;21.50;92.10
13794;DHT22;31160;49.500;7.772;2022-08-04T00:20:04;21.60;92.10
13794;DHT22;31160;49.500;7.772;2022-08-04T00:22:33;21.50;92.50
13794;DHT22;31160;49.500;7.772;2022-08-04T00:25:04;21.50;92.50
13794;DHT22;31160;49.500;7.772;2022-08-04T00:27:31;21.40;92.50
13794;DHT22;31160;49.500;7.772;2022-08-04T00:30:02;21.30;92.70
13794;DHT22;31160;49.500;7.772;2022-08-04T00:32:30;21.30;93.20
13794;DHT22;31160;49.500;7.772;2022-08-04T00:35:00;21.30;93.30
13794;DHT22;31160;49.500;7.772;2022-08-04T00:37:27;21.30;93.30
13794;DHT22;31160;49.500;7.772;2022-08-04T00:39:54;21.30;93.20
13794;DHT22;31160;49.500;7.772;2022-08-04T00:42:34;21.30;93.20
13794;DHT22;31160;49.500;7.772;2022-08-04T00:54:02;21.10;94.10
13794;DHT22;31160;49.500;7.772;2022-08-04T01:05:51;20.90;95.10
13794;DHT22;31160;49.500;7.772;2022-08-04T01:13:35;20.80;95.70
13794;DHT22;31160;49.500;7.772;2022-08-04T01:16:08;20.80;95.90
13794;DHT22;31160;49.500;7.772;2022-08-04T01:19:00;20.70;96.00
13794;DHT22;31160;49.500;7.772;2022-08-04T01:27:03;20.60;96.30
13794;DHT22;31160;49.500;7.772;2022-08-04T01:29:42;20.60;96.50
13794;DHT22;31160;49.500;7.772;2022-08-04T01:32:19;20.50;96.60
13794;DHT22;31160;49.500;7.772;2022-08-04T01:35:04;20.50;96.80
13794;DHT22;31160;49.500;7.772;2022-08-04T01:37:51;20.40;97.00
13794;DHT22;31160;49.500;7.772;2022-08-04T01:40:20;20.40;97.30
13794;DHT22;31160;49.500;7.772;2022-08-04T01:42:51;20.30;97.40
13794;DHT22;31160;49.500;7.772;2022-08-04T01:45:19;20.30;97.50
13794;DHT22;31160;49.500;7.772;2022-08-04T01:47:51;20.30;97.50
13794;DHT22;31160;49.500;7.772;2022-08-04T01:50:18;20.30;97.60
13794;DHT22;31160;49.500;7.772;2022-08-04T01:52:46;20.30;97.60
13794;DHT22;31160;49.500;7.772;2022-08-04T01:55:17;20.20;98.00
13794;DHT22;31160;49.500;7.772;2022-08-04T01:57:46;20.10;98.30
13794;DHT22;31160;49.500;7.772;2022-08-04T02:00:16;20.10;98.50
13794;DHT22;31160;49.500;7.772;2022-08-04T02:02:44;20.10;98.60
13794;DHT22;31160;49.500;7.772;2022-08-04T02:05:17;20.00;98.70
13794;DHT22;31160;49.500;7.772;2022-08-04T02:16:28;19.90;99.20
13794;DHT22;31160;49.500;7.772;2022-08-04T02:19:13;19.90;99.20
13794;DHT22;31160;49.500;7.772;2022-08-04T02:21:47;19.90;99.30
13794;DHT22;31160;49.500;7.772;2022-08-04T02:24:17;19.90;99.40
13794;DHT22;31160;49.500;7.772;2022-08-04T02:26:48;19.90;99.50
13794;DHT22;31160;49.500;7.772;2022-08-04T02:30:02;19.80;99.60
13794;DHT22;31160;49.500;7.772;2022-08-04T02:32:32;19.80;99.60
13794;DHT22;31160;49.500;7.772;2022-08-04T02:35:14;19.90;99.50
13794;DHT22;31160;49.500;7.772;2022-08-04T02:37:46;19.80;99.60
13794;DHT22;31160;49.500;7.772;2022-08-04T02:40:19;19.70;99.80
13794;DHT22;31160;49.500;7.772;2022-08-04T02:42:48;19.70;99.90
13794;DHT22;31160;49.500;7.772;2022-08-04T02:45:18;19.60;99.90
13794;DHT22;31160;49.500;7.772;2022-08-04T02:47:47;19.60;99.90
13794;DHT22;31160;49.500;7.772;2022-08-04T02:50:36;19.60;99.90
13794;DHT22;31160;49.500;7.772;2022-08-04T02:53:03;19.50;99.90
13794;DHT22;31160;49.500;7.772;2022-08-04T02:55:35;19.50;99.90
13794;DHT22;31160;49.500;7.772;2022-08-04T02:58:04;19.50;99.90
13794;DHT22;31160;49.500;7.772;2022-08-04T03:00:32;19.50;99.90
13794;DHT22;31160;49.500;7.772;2022-08-04T03:03:21;19.50;99.90
13794;DHT22;31160;49.500;7.772;2022-08-04T03:08:59;19.40;99.90
13794;DHT22;31160;49.500;7.772;2022-08-04T03:14:38;19.30;99.90
13794;DHT22;31160;49.500;7.772;2022-08-04T03:26:42;19.20;99.90
13794;DHT22;31160;49.500;7.772;2022-08-04T03:29:34;19.20;99.90
13794;DHT22;31160;49.500;7.772;2022-08-04T03:40:56;19.10;99.90
13794;DHT22;31160;49.500;7.772;2022-08-04T03:52:27;19.00;99.90
13794;DHT22;31160;49.500;7.772;2022-08-04T04:20:48;19.00;99.90
13794;DHT22;31160;49.500;7.772;2022-08-04T04:25:58;19.00;99.90
13794;DHT22;31160;49.500;7.772;2022-08-04T04:31:42;19.10;99.90
13794;DHT22;31160;49.500;7.772;2022-08-04T04:39:58;19.20;99.90
13794;DHT22;31160;49.500;7.772;2022-08-04T04:42:34;19.30;99.90
13794;DHT22;31160;49.500;7.772;2022-08-04T04:53:57;19.60;99.90
13794;DHT22;31160;49.500;7.772;2022-08-04T04:56:36;19.50;99.90
13794;DHT22;31160;49.500;7.772;2022-08-04T04:59:20;19.50;99.90
13794;DHT22;31160;49.500;7.772;2022-08-04T05:02:14;19.50;99.90
13794;DHT22;31160;49.500;7.772;2022-08-04T05:10:11;19.50;99.90
13794;DHT22;31160;49.500;7.772;2022-08-04T05:12:57;19.50;99.90
13794;DHT22;31160;49.500;7.772;2022-08-04T05:15:52;19.60;99.90
13794;DHT22;31160;49.500;7.772;2022-08-04T05:18:23;19.80;99.90
13794;DHT22;31160;49.500;7.772;2022-08-04T05:20:56;19.90;99.90
13794;DHT22;31160;49.500;7.772;2022-08-04T05:23:26;19.90;99.90
13794;DHT22;31160;49.500;7.772;2022-08-04T05:26:03;20.00;99.90
13794;DHT22;31160;49.500;7.772;2022-08-04T05:28:40;20.10;99.90
13794;DHT22;31160;49.500;7.772;2022-08-04T05:31:13;20.10;99.90
13794;DHT22;31160;49.500;7.772;2022-08-04T05:33:48;20.10;99.90
13794;DHT22;31160;49.500;7.772;2022-08-04T05:36:21;20.10;99.90
13794;DHT22;31160;49.500;7.772;2022-08-04T05:39:11;20.30;99.90
13794;DHT22;31160;49.500;7.772;2022-08-04T05:41:41;22.50;98.40
13794;DHT22;31160;49.500;7.772;2022-08-04T05:44:13;25.60;93.10
13794;DHT22;31160;49.500;7.772;2022-08-04T05:46:43;26.20;90.50
13794;DHT22;31160;49.500;7.772;2022-08-04T05:49:21;26.00;88.80
13794;DHT22;31160;49.500;7.772;2022-08-04T05:51:49;25.40;88.90
13794;DHT22;31160;49.500;7.772;2022-08-04T05:54:17;25.40;89.80
13794;DHT22;31160;49.500;7.772;2022-08-04T05:56:47;25.50;88.70
13794;DHT22;31160;49.500;7.772;2022-08-04T05:59:16;25.30;90.00
13794;DHT22;31160;49.500;7.772;2022-08-04T06:01:45;25.40;89.70
13794;DHT22;31160;49.500;7.772;2022-08-04T06:04:31;26.20;87.50
13794;DHT22;31160;49.500;7.772;2022-08-04T06:06:58;26.60;85.20
13794;DHT22;31160;49.500;7.772;2022-08-04T06:09:25;26.40;85.80
13794;DHT22;31160;49.500;7.772;2022-08-04T06:11:52;25.70;87.40
13794;DHT22;31160;49.500;7.772;2022-08-04T06:14:38;25.50;87.80
13794;DHT22;31160;49.500;7.772;2022-08-04T06:17:07;25.20;88.80
13794;DHT22;31160;49.500;7.772;2022-08-04T06:19:55;24.90;89.80
13794;DHT22;31160;49.500;7.772;2022-08-04T06:22:44;24.50;90.50
13794;DHT22;31160;49.500;7.772;2022-08-04T06:25:17;24.50;90.70
13794;DHT22;31160;49.500;7.772;2022-08-04T06:27:47;24.40;90.80
13794;DHT22;31160;49.500;7.772;2022-08-04T06:30:15;24.40;91.20
13794;DHT22;31160;49.500;7.772;2022-08-04T06:32:45;24.40;91.30
13794;DHT22;31160;49.500;7.772;2022-08-04T06:35:17;24.50;91.20
13794;DHT22;31160;49.500;7.772;2022-08-04T06:37:45;24.60;91.20
13794;DHT22;31160;49.500;7.772;2022-08-04T06:40:15;24.80;91.20
13794;DHT22;31160;49.500;7.772;2022-08-04T06:43:04;24.90;90.80
13794;DHT22;31160;49.500;7.772;2022-08-04T06:45:33;25.10;90.70
13794;DHT22;31160;49.500;7.772;2022-08-04T06:48:02;25.10;90.50
13794;DHT22;31160;49.500;7.772;2022-08-04T06:50:31;25.30;90.40
13794;DHT22;31160;49.500;7.772;2022-08-04T06:53:19;25.60;90.20
13794;DHT22;31160;49.500;7.772;2022-08-04T06:55:47;25.80;89.70
13794;DHT22;31160;49.500;7.772;2022-08-04T06:58:15;26.10;88.00
13794;DHT22;31160;49.500;7.772;2022-08-04T07:00:43;26.30;86.40
13794;DHT22;31160;49.500;7.772;2022-08-04T07:03:11;26.50;84.80
13794;DHT22;31160;49.500;7.772;2022-08-04T07:05:39;26.80;84.20
13794;DHT22;31160;49.500;7.772;2022-08-04T07:08:09;27.00;84.60
13794;DHT22;31160;49.500;7.772;2022-08-04T07:10:36;27.10;84.80
13794;DHT22;31160;49.500;7.772;2022-08-04T07:13:04;27.30;84.10
13794;DHT22;31160;49.500;7.772;2022-08-04T07:15:33;27.60;83.20
13794;DHT22;31160;49.500;7.772;2022-08-04T07:18:01;27.60;80.80
13794;DHT22;31160;49.500;7.772;2022-08-04T07:20:31;27.80;80.60
13794;DHT22;31160;49.500;7.772;2022-08-04T07:23:05;28.00;78.80
13794;DHT22;31160;49.500;7.772;2022-08-04T07:25:34;28.00;79.60
13794;DHT22;31160;49.500;7.772;2022-08-04T07:28:23;28.10;78.80
13794;DHT22;31160;49.500;7.772;2022-08-04T07:30:53;28.20;78.80
13794;DHT22;31160;49.500;7.772;2022-08-04T07:33:22;28.30;77.20
13794;DHT22;31160;49.500;7.772;2022-08-04T07:35:53;28.60;74.20
13794;DHT22;31160;49.500;7.772;2022-08-04T07:38:41;28.80;72.60
13794;DHT22;31160;49.500;7.772;2022-08-04T07:41:19;29.00;71.90
13794;DHT22;31160;49.500;7.772;2022-08-04T07:44:03;29.30;71.20
13794;DHT22;31160;49.500;7.772;2022-08-04T07:46:30;29.40;71.00
13794;DHT22;31160;49.500;7.772;2022-08-04T07:49:02;29.40;69.90
13794;DHT22;31160;49.500;7.772;2022-08-04T07:51:30;29.50;69.00
13794;DHT22;31160;49.500;7.772;2022-08-04T07:53:58;29.80;67.20
13794;DHT22;31160;49.500;7.772;2022-08-04T07:56:26;29.80;67.50
13794;DHT22;31160;49.500;7.772;2022-08-04T07:58:54;29.80;69.10
13794;DHT22;31160;49.500;7.772;2022-08-04T08:01:25;30.00;66.80
13794;DHT22;31160;49.500;7.772;2022-08-04T08:03:54;30.20;65.40
13794;DHT22;31160;49.500;7.772;2022-08-04T08:06:22;30.40;64.00
13794;DHT22;31160;49.500;7.772;2022-08-04T08:09:02;30.40;63.50
13794;DHT22;31160;49.500;7.772;2022-08-04T08:11:44;30.50;62.80
13794;DHT22;31160;49.500;7.772;2022-08-04T08:14:32;30.70;64.70
13794;DHT22;31160;49.500;7.772;2022-08-04T08:17:01;30.90;63.70
13794;DHT22;31160;49.500;7.772;2022-08-04T08:19:29;30.80;63.80
13794;DHT22;31160;49.500;7.772;2022-08-04T08:21:57;30.80;63.50
13794;DHT22;31160;49.500;7.772;2022-08-04T08:24:32;30.80;62.50
13794;DHT22;31160;49.500;7.772;2022-08-04T08:27:02;30.80;62.90
13794;DHT22;31160;49.500;7.772;2022-08-04T08:29:33;31.00;63.10
13794;DHT22;31160;49.500;7.772;2022-08-04T08:32:01;31.10;62.60
13794;DHT22;31160;49.500;7.772;2022-08-04T08:34:35;31.20;61.60
13794;DHT22;31160;49.500;7.772;2022-08-04T08:37:15;31.20;61.60
13794;DHT22;31160;49.500;7.772;2022-08-04T08:39:57;31.30;60.60
13794;DHT22;31160;49.500;7.772;2022-08-04T08:42:51;31.10;61.50
13794;DHT22;31160;49.500;7.772;2022-08-04T08:48:34;31.10;61.40
13794;DHT22;31160;49.500;7.772;2022-08-04T08:51:34;31.20;62.70
13794;DHT22;31160;49.500;7.772;2022-08-04T08:54:27;31.30;61.90
13794;DHT22;31160;49.500;7.772;2022-08-04T08:57:15;31.50;60.80
13794;DHT22;31160;49.500;7.772;2022-08-04T08:59:52;31.70;61.60
13794;DHT22;31160;49.500;7.772;2022-08-04T09:10:58;32.00;60.00
13794;DHT22;31160;49.500;7.772;2022-08-04T09:13:43;31.90;60.50
13794;DHT22;31160;49.500;7.772;2022-08-04T09:19:37;31.90;60.50
13794;DHT22;31160;49.500;7.772;2022-08-04T09:22:18;31.90;60.40
13794;DHT22;31160;49.500;7.772;2022-08-04T09:25:12;32.00;59.70
13794;DHT22;31160;49.500;7.772;2022-08-04T09:30:21;31.90;59.80
13794;DHT22;31160;49.500;7.772;2022-08-04T09:33:03;32.00;59.40
13794;DHT22;31160;49.500;7.772;2022-08-04T09:35:46;32.10;59.60
13794;DHT22;31160;49.500;7.772;2022-08-04T09:41:28;32.20;58.70
13794;DHT22;31160;49.500;7.772;2022-08-04T09:44:42;32.20;59.00
13794;DHT22;31160;49.500;7.772;2022-08-04T09:47:34;32.40;58.30
13794;DHT22;31160;49.500;7.772;2022-08-04T09:58:50;32.80;56.80
13794;DHT22;31160;49.500;7.772;2022-08-04T10:01:22;33.00;56.90
13794;DHT22;31160;49.500;7.772;2022-08-04T10:03:52;33.10;55.70
13794;DHT22;31160;49.500;7.772;2022-08-04T10:06:47;33.20;55.20
13794;DHT22;31160;49.500;7.772;2022-08-04T10:12:39;33.50;53.70
13794;DHT22;31160;49.500;7.772;2022-08-04T10:15:19;33.60;52.40
13794;DHT22;31160;49.500;7.772;2022-08-04T10:23:45;33.80;51.00
13794;DHT22;31160;49.500;7.772;2022-08-04T10:26:45;34.00;51.10
13794;DHT22;31160;49.500;7.772;2022-08-04T10:32:24;34.00;50.40
13794;DHT22;31160;49.500;7.772;2022-08-04T10:40:32;34.30;49.20
13794;DHT22;31160;49.500;7.772;2022-08-04T10:46:02;34.40;48.20
13794;DHT22;31160;49.500;7.772;2022-08-04T10:48:50;34.40;48.00
13794;DHT22;31160;49.500;7.772;2022-08-04T11:00:13;34.80;46.70
13794;DHT22;31160;49.500;7.772;2022-08-04T11:05:46;34.80;48.00
13794;DHT22;31160;49.500;7.772;2022-08-04T11:08:22;35.00;47.10
13794;DHT22;31160;49.500;7.772;2022-08-04T11:13:18;35.00;46.00
13794;DHT22;31160;49.500;7.772;2022-08-04T11:15:57;34.90;45.90
13794;DHT22;31160;49.500;7.772;2022-08-04T11:18:55;35.00;46.60
13794;DHT22;31160;49.500;7.772;2022-08-04T11:21:33;35.10;46.70
13794;DHT22;31160;49.500;7.772;2022-08-04T11:24:10;35.00;46.20
13794;DHT22;31160;49.500;7.772;2022-08-04T11:26:48;35.00;45.30
13794;DHT22;31160;49.500;7.772;2022-08-04T11:29:25;35.10;45.70
13794;DHT22;31160;49.500;7.772;2022-08-04T11:31:57;35.30;45.60
13794;DHT22;31160;49.500;7.772;2022-08-04T11:34:26;35.30;45.20
13794;DHT22;31160;49.500;7.772;2022-08-04T11:37:10;35.30;44.40
13794;DHT22;31160;49.500;7.772;2022-08-04T11:39:52;35.50;44.80
13794;DHT22;31160;49.500;7.772;2022-08-04T11:42:22;35.50;45.30
13794;DHT22;31160;49.500;7.772;2022-08-04T11:50:21;35.50;43.60
13794;DHT22;31160;49.500;7.772;2022-08-04T11:52:52;35.60;42.80
13794;DHT22;31160;49.500;7.772;2022-08-04T11:55:21;35.50;41.90
13794;DHT22;31160;49.500;7.772;2022-08-04T11:57:48;35.60;42.90
13794;DHT22;31160;49.500;7.772;2022-08-04T12:00:20;35.70;42.20
13794;DHT22;31160;49.500;7.772;2022-08-04T12:06:05;35.70;41.20
13794;DHT22;31160;49.500;7.772;2022-08-04T12:09:07;35.70;41.40
13794;DHT22;31160;49.500;7.772;2022-08-04T12:11:47;35.70;41.30
13794;DHT22;31160;49.500;7.772;2022-08-04T12:14:32;35.80;41.80
13794;DHT22;31160;49.500;7.772;2022-08-04T12:17:04;35.60;42.80
13794;DHT22;31160;49.500;7.772;2022-08-04T12:19:49;35.70;42.20
13794;DHT22;31160;49.500;7.772;2022-08-04T12:22:36;35.70;42.50
13794;DHT22;31160;49.500;7.772;2022-08-04T12:25:15;35.70;43.20
13794;DHT22;31160;49.500;7.772;2022-08-04T12:27:56;35.80;42.40
13794;DHT22;31160;49.500;7.772;2022-08-04T12:30:23;35.90;42.50
13794;DHT22;31160;49.500;7.772;2022-08-04T12:33:22;35.90;42.20
13794;DHT22;31160;49.500;7.772;2022-08-04T12:36:18;35.90;41.80
13794;DHT22;31160;49.500;7.772;2022-08-04T12:39:11;35.80;41.10
13794;DHT22;31160;49.500;7.772;2022-08-04T12:41:47;35.90;40.90
13794;DHT22;31160;49.500;7.772;2022-08-04T12:44:19;35.90;40.80
13794;DHT22;31160;49.500;7.772;2022-08-04T12:47:07;36.00;40.50
13794;DHT22;31160;49.500;7.772;2022-08-04T12:49:58;36.20;40.10
13794;DHT22;31160;49.500;7.772;2022-08-04T12:52:31;36.20;40.50
13794;DHT22;31160;49.500;7.772;2022-08-04T13:50:14;35.70;42.00
13794;DHT22;31160;49.500;7.772;2022-08-04T13:52:42;36.10;41.10
13794;DHT22;31160;49.500;7.772;2022-08-04T13:55:25;36.30;40.60
13794;DHT22;31160;49.500;7.772;2022-08-04T13:57:56;36.30;40.90
13794;DHT22;31160;49.500;7.772;2022-08-04T14:00:25;36.30;39.70
13794;DHT22;31160;49.500;7.772;2022-08-04T14:03:02;36.30;40.60
13794;DHT22;31160;49.500;7.772;2022-08-04T14:06:29;36.40;39.50
13794;DHT22;31160;49.500;7.772;2022-08-04T14:08:56;36.30;39.70
13794;DHT22;31160;49.500;7.772;2022-08-04T14:11:39;36.40;39.80
13794;DHT22;31160;49.500;7.772;2022-08-04T14:14:28;36.50;40.50
13794;DHT22;31160;49.500;7.772;2022-08-04T14:16:57;36.20;40.10
13794;DHT22;31160;49.500;7.772;2022-08-04T14:19:46;35.90;39.80
13794;DHT22;31160;49.500;7.772;2022-08-04T14:25:13;35.40;41.10
13794;DHT22;31160;49.500;7.772;2022-08-04T14:27:50;35.60;40.20
13794;DHT22;31160;49.500;7.772;2022-08-04T14:30:27;35.90;39.50
13794;DHT22;31160;49.500;7.772;2022-08-04T14:32:55;36.20;39.30
13794;DHT22;31160;49.500;7.772;2022-08-04T14:35:23;36.30;39.60
13794;DHT22;31160;49.500;7.772;2022-08-04T14:38:08;36.30;39.60
13794;DHT22;31160;49.500;7.772;2022-08-04T14:40:38;36.40;39.20
13794;DHT22;31160;49.500;7.772;2022-08-04T14:43:06;36.40;39.30
13794;DHT22;31160;49.500;7.772;2022-08-04T14:45:40;36.50;39.60
13794;DHT22;31160;49.500;7.772;2022-08-04T14:48:21;36.30;39.70
13794;DHT22;31160;49.500;7.772;2022-08-04T14:50:49;36.00;39.80
13794;DHT22;31160;49.500;7.772;2022-08-04T14:53:23;35.80;40.10
13794;DHT22;31160;49.500;7.772;2022-08-04T14:56:00;35.80;39.80
13794;DHT22;31160;49.500;7.772;2022-08-04T14:58:31;35.90;40.50
13794;DHT22;31160;49.500;7.772;2022-08-04T15:01:07;35.90;40.20
13794;DHT22;31160;49.500;7.772;2022-08-04T15:03:42;35.80;40.90
13794;DHT22;31160;49.500;7.772;2022-08-04T15:06:20;35.80;40.80
13794;DHT22;31160;49.500;7.772;2022-08-04T15:08:50;35.70;41.10
13794;DHT22;31160;49.500;7.772;2022-08-04T15:11:18;35.60;41.10
13794;DHT22;31160;49.500;7.772;2022-08-04T15:13:50;35.70;40.80
13794;DHT22;31160;49.500;7.772;2022-08-04T15:16:17;35.90;40.50
13794;DHT22;31160;49.500;7.772;2022-08-04T15:18:44;36.30;41.40
13794;DHT22;31160;49.500;7.772;2022-08-04T15:21:15;36.50;39.80
13794;DHT22;31160;49.500;7.772;2022-08-04T15:23:43;36.50;41.60
13794;DHT22;31160;49.500;7.772;2022-08-04T15:26:37;36.70;40.20
13794;DHT22;31160;49.500;7.772;2022-08-04T15:29:13;36.80;40.70
13794;DHT22;31160;49.500;7.772;2022-08-04T15:31:43;37.10;39.80
13794;DHT22;31160;49.500;7.772;2022-08-04T15:34:46;37.10;39.30
13794;DHT22;31160;49.500;7.772;2022-08-04T15:37:24;37.30;39.20
13794;DHT22;31160;49.500;7.772;2022-08-04T15:39:59;37.30;40.30
13794;DHT22;31160;49.500;7.772;2022-08-04T15:45:24;37.30;39.00
13794;DHT22;31160;49.500;7.772;2022-08-04T15:58:56;37.20;39.50
13794;DHT22;31160;49.500;7.772;2022-08-04T16:01:23;36.90;39.50
13794;DHT22;31160;49.500;7.772;2022-08-04T16:03:52;36.80;39.80
13794;DHT22;31160;49.500;7.772;2022-08-04T16:09:01;36.50;39.80
13794;DHT22;31160;49.500;7.772;2022-08-04T16:16:32;36.10;39.60
13794;DHT22;31160;49.500;7.772;2022-08-04T16:22:03;35.70;40.80
13794;DHT22;31160;49.500;7.772;2022-08-04T16:24:39;35.50;40.60
13794;DHT22;31160;49.500;7.772;2022-08-04T16:27:11;35.40;40.90
13794;DHT22;31160;49.500;7.772;2022-08-04T16:29:41;35.40;43.00
13794;DHT22;31160;49.500;7.772;2022-08-04T16:32:12;35.30;40.70
13794;DHT22;31160;49.500;7.772;2022-08-04T16:37:28;35.40;41.60
13794;DHT22;31160;49.500;7.772;2022-08-04T16:43:21;35.40;41.20
13794;DHT22;31160;49.500;7.772;2022-08-04T16:45:52;35.20;42.00
13794;DHT22;31160;49.500;7.772;2022-08-04T16:48:31;35.20;41.60
13794;DHT22;31160;49.500;7.772;2022-08-04T16:51:09;35.30;41.70
13794;DHT22;31160;49.500;7.772;2022-08-04T16:53:39;35.40;41.50
13794;DHT22;31160;49.500;7.772;2022-08-04T16:56:32;35.40;41.30
13794;DHT22;31160;49.500;7.772;2022-08-04T16:59:08;35.20;41.60
13794;DHT22;31160;49.500;7.772;2022-08-04T17:01:36;35.20;41.70
13794;DHT22;31160;49.500;7.772;2022-08-04T17:04:04;35.20;41.70
13794;DHT22;31160;49.500;7.772;2022-08-04T17:06:40;35.10;42.20
13794;DHT22;31160;49.500;7.772;2022-08-04T17:09:12;35.20;42.00
13794;DHT22;31160;49.500;7.772;2022-08-04T17:11:41;35.10;41.90
13794;DHT22;31160;49.500;7.772;2022-08-04T17:14:08;35.10;41.80
13794;DHT22;31160;49.500;7.772;2022-08-04T17:16:38;35.10;42.00
13794;DHT22;31160;49.500;7.772;2022-08-04T17:19:06;35.10;41.90
13794;DHT22;31160;49.500;7.772;2022-08-04T17:21:54;35.00;42.30
13794;DHT22;31160;49.500;7.772;2022-08-04T17:24:30;34.90;42.40
13794;DHT22;31160;49.500;7.772;2022-08-04T17:26:57;34.90;42.60
13794;DHT22;31160;49.500;7.772;2022-08-04T17:29:27;34.90;42.50
13794;DHT22;31160;49.500;7.772;2022-08-04T17:32:13;34.80;43.00
13794;DHT22;31160;49.500;7.772;2022-08-04T17:34:40;34.70;43.40
13794;DHT22;31160;49.500;7.772;2022-08-04T17:37:10;34.70;44.00
13794;DHT22;31160;49.500;7.772;2022-08-04T17:40:10;34.60;43.90
13794;DHT22;31160;49.500;7.772;2022-08-04T17:42:37;34.50;44.10
13794;DHT22;31160;49.500;7.772;2022-08-04T17:45:09;34.40;44.10
13794;DHT22;31160;49.500;7.772;2022-08-04T17:47:56;34.40;44.50
13794;DHT22;31160;49.500;7.772;2022-08-04T17:50:28;34.20;44.80
13794;DHT22;31160;49.500;7.772;2022-08-04T17:53:00;34.00;45.10
13794;DHT22;31160;49.500;7.772;2022-08-04T17:55:41;33.90;46.90
13794;DHT22;31160;49.500;7.772;2022-08-04T18:01:02;33.80;47.70
13794;DHT22;31160;49.500;7.772;2022-08-04T18:03:49;33.60;48.50
13794;DHT22;31160;49.500;7.772;2022-08-04T18:06:20;33.40;49.00
13794;DHT22;31160;49.500;7.772;2022-08-04T18:08:53;33.20;50.40
13794;DHT22;31160;49.500;7.772;2022-08-04T18:11:23;33.00;51.10
13794;DHT22;31160;49.500;7.772;2022-08-04T18:14:10;32.80;51.50
13794;DHT22;31160;49.500;7.772;2022-08-04T18:16:44;32.60;52.20
13794;DHT22;31160;49.500;7.772;2022-08-04T18:19:13;32.40;52.80
13794;DHT22;31160;49.500;7.772;2022-08-04T18:21:40;32.20;52.90
13794;DHT22;31160;49.500;7.772;2022-08-04T18:24:13;32.10;53.50
13794;DHT22;31160;49.500;7.772;2022-08-04T18:26:40;31.90;53.70
13794;DHT22;31160;49.500;7.772;2022-08-04T18:29:11;31.80;53.80
13794;DHT22;31160;49.500;7.772;2022-08-04T18:31:57;31.70;54.20
13794;DHT22;31160;49.500;7.772;2022-08-04T18:34:24;31.60;54.70
13794;DHT22;31160;49.500;7.772;2022-08-04T18:36:52;31.40;55.00
13794;DHT22;31160;49.500;7.772;2022-08-04T18:39:24;31.20;55.30
13794;DHT22;31160;49.500;7.772;2022-08-04T18:42:13;31.10;55.60
13794;DHT22;31160;49.500;7.772;2022-08-04T18:44:41;31.00;56.00
13794;DHT22;31160;49.500;7.772;2022-08-04T18:47:22;30.90;56.30
13794;DHT22;31160;49.500;7.772;2022-08-04T18:49:56;30.80;56.60
13794;DHT22;31160;49.500;7.772;2022-08-04T18:52:43;30.70;56.70
13794;DHT22;31160;49.500;7.772;2022-08-04T18:55:12;30.50;56.80
13794;DHT22;31160;49.500;7.772;2022-08-04T18:57:59;30.40;57.10
13794;DHT22;31160;49.500;7.772;2022-08-04T19:00:27;30.30;57.40
13794;DHT22;31160;49.500;7.772;2022-08-04T19:02:54;30.20;57.10
13794;DHT22;31160;49.500;7.772;2022-08-04T19:05:22;30.10;57.10
13794;DHT22;31160;49.500;7.772;2022-08-04T19:08:03;29.90;57.60
13794;DHT22;31160;49.500;7.772;2022-08-04T19:10:50;29.90;58.20
13794;DHT22;31160;49.500;7.772;2022-08-04T19:13:26;29.70;58.50
13794;DHT22;31160;49.500;7.772;2022-08-04T19:15:53;29.60;59.00
13794;DHT22;31160;49.500;7.772;2022-08-04T19:18:24;29.50;59.10
13794;DHT22;31160;49.500;7.772;2022-08-04T19:20:54;29.40;59.50
13794;DHT22;31160;49.500;7.772;2022-08-04T19:23:21;29.30;59.70
13794;DHT22;31160;49.500;7.772;2022-08-04T19:26:08;29.20;60.00
13794;DHT22;31160;49.500;7.772;2022-08-04T19:28:53;29.10;60.20
13794;DHT22;31160;49.500;7.772;2022-08-04T19:31:21;28.90;60.20
13794;DHT22;31160;49.500;7.772;2022-08-04T19:34:00;28.80;60.10
13794;DHT22;31160;49.500;7.772;2022-08-04T19:36:33;28.70;60.40
13794;DHT22;31160;49.500;7.772;2022-08-04T19:39:02;28.60;60.90
13794;DHT22;31160;49.500;7.772;2022-08-04T19:41:37;28.50;61.00
13794;DHT22;31160;49.500;7.772;2022-08-04T19:44:24;28.40;61.10
13794;DHT22;31160;49.500;7.772;2022-08-04T19:46:56;28.30;61.60
13794;DHT22;31160;49.500;7.772;2022-08-04T19:49:26;28.30;61.80
13794;DHT22;31160;49.500;7.772;2022-08-04T19:52:13;28.30;61.80
13794;DHT22;31160;49.500;7.772;2022-08-04T19:55:00;28.20;61.90
13794;DHT22;31160;49.500;7.772;2022-08-04T19:57:37;28.10;62.00
13794;DHT22;31160;49.500;7.772;2022-08-04T20:00:12;28.10;62.20
13794;DHT22;31160;49.500;7.772;2022-08-04T20:02:40;27.90;62.50
13794;DHT22;31160;49.500;7.772;2022-08-04T20:05:08;27.90;62.60
13794;DHT22;31160;49.500;7.772;2022-08-04T20:07:35;27.60;63.40
13794;DHT22;31160;49.500;7.772;2022-08-04T20:10:06;27.50;62.80
13794;DHT22;31160;49.500;7.772;2022-08-04T20:12:38;27.50;61.90
13794;DHT22;31160;49.500;7.772;2022-08-04T20:15:08;27.50;62.20
13794;DHT22;31160;49.500;7.772;2022-08-04T20:17:40;27.40;62.60
13794;DHT22;31160;49.500;7.772;2022-08-04T20:20:27;27.30;62.90
13794;DHT22;31160;49.500;7.772;2022-08-04T20:22:54;27.30;63.20
13794;DHT22;31160;49.500;7.772;2022-08-04T20:25:22;27.30;63.80
13794;DHT22;31160;49.500;7.772;2022-08-04T20:28:02;27.30;64.30
13794;DHT22;31160;49.500;7.772;2022-08-04T20:30:30;27.40;64.10
13794;DHT22;31160;49.500;7.772;2022-08-04T20:32:58;27.30;64.50
13794;DHT22;31160;49.500;7.772;2022-08-04T20:35:48;27.20;64.80
13794;DHT22;31160;49.500;7.772;2022-08-04T20:38:32;27.10;65.10
13794;DHT22;31160;49.500;7.772;2022-08-04T20:41:00;27.00;65.00
13794;DHT22;31160;49.500;7.772;2022-08-04T20:43:27;27.00;65.30
13794;DHT22;31160;49.500;7.772;2022-08-04T20:45:57;27.00;65.30
13794;DHT22;31160;49.500;7.772;2022-08-04T20:48:29;26.90;65.90
13794;DHT22;31160;49.500;7.772;2022-08-04T20:50:59;26.90;66.20
13794;DHT22;31160;49.500;7.772;2022-08-04T20:53:26;26.90;65.30
13794;DHT22;31160;49.500;7.772;2022-08-04T20:56:12;26.90;65.50
13794;DHT22;31160;49.500;7.772;2022-08-04T20:58:57;26.90;65.90
13794;DHT22;31160;49.500;7.772;2022-08-04T21:01:23;26.80;66.00
13794;DHT22;31160;49.500;7.772;2022-08-04T21:03:55;26.80;66.40
13794;DHT22;31160;49.500;7.772;2022-08-04T21:06:57;26.80;66.60
13794;DHT22;31160;49.500;7.772;2022-08-04T21:09:25;26.70;65.70